Time;durP1;ratioP1;P1;durP2;ratioP2;P2;SDS_P1;SDS_P2;PMS_P1;PMS_P2;Temp;Humidity;BMP_temperature;BMP_pressure;BME280_temperature;BME280_humidity;BME280_pressure;Samples;Min_cycle;Max_cycle;Signal;HPM_P1;HPM_P2
2022/08/02 00:01:55;;;;;;;0.20;0.20;;;;;;;17.25;100.00;100455.38;4992404;28;20495;-78
2022/08/02 00:04:21;;;;;;;2.78;0.30;;;;;;;17.22;100.00;100434.94;5001646;28;20053;-76
2022/08/02 00:06:46;;;;;;;0.30;0.30;;;;;;;17.12;100.00;100440.06;5008332;28;20026;-77
2022/08/02 00:09:13;;;;;;;0.20;0.20;;;;;;;17.21;100.00;100455.03;5018075;28;20268;-77
2022/08/02 00:11:39;;;;;;;0.30;0.30;;;;;;;17.16;100.00;100449.44;4989780;28;20376;-77
2022/08/02 00:14:06;;;;;;;0.40;0.40;;;;;;;17.18;100.00;100458.19;5002189;28;20026;-77
2022/08/02 00:16:31;;;;;;;0.20;0.20;;;;;;;17.13;100.00;100444.47;5018268;28;20430;-77
2022/08/02 00:18:57;;;;;;;0.20;0.20;;;;;;;17.18;100.00;100469.06;5002732;28;20049;-77
2022/08/02 00:21:23;;;;;;;0.30;0.30;;;;;;;17.16;100.00;100476.59;5002558;28;20029;-77
2022/08/02 00:23:49;;;;;;;0.20;0.20;;;;;;;17.16;100.00;100460.31;5015005;28;20153;-78
2022/08/02 00:26:14;;;;;;;0.30;0.30;;;;;;;17.12;100.00;100448.22;5031612;28;20060;-77
2022/08/02 00:28:40;;;;;;;0.30;0.30;;;;;;;17.14;100.00;100441.50;4989784;28;20096;-77
2022/08/02 00:31:05;;;;;;;0.30;0.30;;;;;;;17.12;100.00;100442.78;4986612;28;20536;-78
2022/08/02 00:33:31;;;;;;;0.20;0.20;;;;;;;17.14;100.00;100446.09;4987678;28;20068;-76
2022/08/02 00:35:57;;;;;;;0.30;0.30;;;;;;;17.13;100.00;100439.84;5013893;28;20045;-76
2022/08/02 00:38:23;;;;;;;0.30;0.30;;;;;;;17.13;100.00;100428.16;5002016;28;20037;-76
2022/08/02 00:40:51;;;;;;;0.20;0.20;;;;;;;17.09;100.00;100418.78;5012581;28;20029;-76
2022/08/02 00:43:17;;;;;;;0.20;0.20;;;;;;;17.11;100.00;100427.56;5007293;28;20063;-78
2022/08/02 00:45:43;;;;;;;0.20;0.20;;;;;;;17.11;100.00;100431.09;5026000;28;20042;-76
2022/08/02 00:48:12;;;;;;;0.30;0.30;;;;;;;17.10;100.00;100417.75;5008555;28;20091;-75
2022/08/02 00:50:39;;;;;;;0.30;0.30;;;;;;;17.10;100.00;100415.88;5025620;28;20025;-76
2022/08/02 00:53:07;;;;;;;0.30;0.30;;;;;;;17.08;100.00;100417.16;4995148;28;20506;-77
2022/08/02 00:55:34;;;;;;;0.30;0.30;;;;;;;17.02;100.00;100410.75;5014363;28;20029;-76
2022/08/02 00:58:00;;;;;;;0.30;0.30;;;;;;;17.05;100.00;100420.31;4992014;28;20037;-77
2022/08/02 01:00:26;;;;;;;0.30;0.30;;;;;;;17.02;100.00;100413.44;4989703;28;20021;-77
2022/08/02 01:02:51;;;;;;;0.30;0.30;;;;;;;17.03;100.00;100401.53;5009580;28;20052;-77
2022/08/02 01:05:17;;;;;;;0.30;0.30;;;;;;;17.03;100.00;100397.97;4986932;28;20096;-78
2022/08/02 01:07:43;;;;;;;0.30;0.30;;;;;;;16.93;100.00;100387.63;5012952;28;20029;-77
2022/08/02 01:10:09;;;;;;;0.30;0.30;;;;;;;17.02;100.00;100402.59;4997918;28;20084;-76
2022/08/02 01:12:34;;;;;;;0.40;0.40;;;;;;;17.01;100.00;100395.47;5026142;28;20041;-76
2022/08/02 01:15:08;;;;;;;0.30;0.30;;;;;;;17.01;100.00;100398.19;5006435;28;20037;-77
2022/08/02 01:17:33;;;;;;;;;;;;;;;17.02;100.00;100396.34;4999852;28;20033;-77
2022/08/02 01:20:06;;;;;;;0.55;0.55;;;;;;;16.97;100.00;100390.75;5011488;28;20326;-76
2022/08/02 01:23:05;;;;;;;0.30;0.30;;;;;;;17.04;100.00;100399.63;5012797;28;20076;-76
2022/08/02 01:25:50;;;;;;;0.30;0.30;;;;;;;17.05;100.00;100395.88;4999949;28;20042;-76
2022/08/02 01:28:44;;;;;;;0.30;0.30;;;;;;;17.04;100.00;100381.47;5024039;28;20045;-76
2022/08/02 01:31:20;;;;;;;0.30;0.30;;;;;;;17.04;100.00;100378.75;5010290;28;20080;-76
2022/08/02 01:34:16;;;;;;;0.20;0.20;;;;;;;17.07;100.00;100394.59;5018199;28;20079;-77
2022/08/02 01:37:15;;;;;;;0.28;0.28;;;;;;;17.05;100.00;100383.13;5003419;28;20065;-76
2022/08/02 01:39:43;;;;;;;0.30;0.30;;;;;;;17.05;100.00;100383.13;5005942;28;20029;-76
2022/08/02 01:42:10;;;;;;;0.52;0.52;;;;;;;17.07;100.00;100377.47;5011188;28;20030;-77
2022/08/02 01:44:37;;;;;;;0.57;0.50;;;;;;;17.08;100.00;100373.69;4985175;28;20068;-77
2022/08/02 01:47:08;;;;;;;0.32;0.32;;;;;;;17.07;100.00;100372.03;4986981;28;20052;-76
2022/08/02 01:49:36;;;;;;;0.30;0.30;;;;;;;17.08;100.00;100362.81;5018345;28;20053;-77
2022/08/02 01:52:21;;;;;;;0.30;0.30;;;;;;;17.01;100.00;100348.47;5034988;28;20025;-76
2022/08/02 01:54:56;;;;;;;0.65;0.65;;;;;;;17.04;100.00;100364.31;5016767;28;20050;-76
2022/08/02 01:57:22;;;;;;;0.30;0.30;;;;;;;17.06;100.00;100379.34;4995978;28;20394;-76
2022/08/02 01:59:48;;;;;;;0.50;0.50;;;;;;;17.06;100.00;100375.78;4990165;28;20553;-76
2022/08/02 02:02:15;;;;;;;0.30;0.30;;;;;;;17.07;100.00;100391.88;5019529;28;20079;-77
2022/08/02 02:04:42;;;;;;;0.30;0.30;;;;;;;17.08;100.00;100389.97;5000440;28;20491;-76
2022/08/02 02:07:09;;;;;;;0.30;0.30;;;;;;;17.07;100.00;100381.00;4986934;28;20037;-77
2022/08/02 02:09:36;;;;;;;0.30;0.30;;;;;;;17.08;100.00;100388.09;4995865;28;20167;-76
2022/08/02 02:12:03;;;;;;;0.40;0.40;;;;;;;17.06;100.00;100373.91;5006188;28;20123;-76
2022/08/02 02:14:31;;;;;;;0.30;0.30;;;;;;;17.06;100.00;100384.75;5020103;28;20021;-76
2022/08/02 02:16:58;;;;;;;0.30;0.30;;;;;;;17.07;100.00;100381.00;4977665;28;20137;-76
2022/08/02 02:19:25;;;;;;;0.30;0.30;;;;;;;17.05;100.00;100385.84;5001150;28;20099;-77
2022/08/02 02:21:51;;;;;;;0.30;0.30;;;;;;;17.05;100.00;100383.13;5005605;28;20041;-76
2022/08/02 02:24:17;;;;;;;0.40;0.40;;;;;;;17.02;100.00;100378.13;5008887;28;20040;-76
2022/08/02 02:26:43;;;;;;;0.30;0.30;;;;;;;16.99;100.00;100375.03;5005337;28;20089;-76
2022/08/02 02:29:10;;;;;;;0.20;0.20;;;;;;;17.00;100.00;100369.38;5013465;28;20499;-77
2022/08/02 02:31:37;;;;;;;0.30;0.30;;;;;;;16.88;100.00;100344.03;5017872;28;20115;-76
2022/08/02 02:34:33;;;;;;;0.40;0.40;;;;;;;16.95;100.00;100344.78;5012461;28;20471;-77
2022/08/02 02:37:02;;;;;;;0.20;0.20;;;;;;;16.94;100.00;100339.59;4982164;28;20049;-77
2022/08/02 02:39:31;;;;;;;0.22;0.22;;;;;;;16.92;100.00;100351.50;5015933;28;20123;-77
2022/08/02 02:42:00;;;;;;;0.30;0.30;;;;;;;16.91;100.00;100324.59;5011884;28;20044;-77
2022/08/02 02:44:26;;;;;;;0.20;0.20;;;;;;;16.83;100.00;100309.44;5024204;28;20036;-77
2022/08/02 02:46:53;;;;;;;0.38;0.38;;;;;;;16.91;100.00;100321.88;4997109;28;20494;-76
2022/08/02 02:49:20;;;;;;;0.20;0.20;;;;;;;16.84;100.00;100312.97;5006392;28;20510;-76
2022/08/02 02:51:46;;;;;;;0.30;0.30;;;;;;;16.88;100.00;100328.59;5008207;28;20037;-76
2022/08/02 02:54:12;;;;;;;0.30;0.30;;;;;;;16.87;100.00;100324.19;5024300;28;20387;-76
2022/08/02 02:56:39;;;;;;;0.25;0.25;;;;;;;16.89;100.00;100341.09;4987779;28;20036;-76
2022/08/02 02:59:07;;;;;;;0.30;0.30;;;;;;;16.91;100.00;100365.34;4975068;28;20045;-76
2022/08/02 03:01:33;;;;;;;0.30;0.30;;;;;;;16.88;100.00;100352.19;5027166;28;20033;-77
2022/08/02 03:04:00;;;;;;;0.30;0.30;;;;;;;16.74;100.00;100315.38;5006488;28;20029;-76
2022/08/02 03:06:29;;;;;;;0.35;0.35;;;;;;;16.90;100.00;100325.63;5003746;28;20033;-77
2022/08/02 03:08:55;;;;;;;0.30;0.30;;;;;;;16.88;100.00;100312.31;5021769;28;20065;-76
2022/08/02 03:11:23;;;;;;;0.30;0.30;;;;;;;16.86;100.00;100300.00;5011589;28;20049;-77
2022/08/02 03:13:49;;;;;;;0.20;0.20;;;;;;;16.88;100.00;100311.44;5007857;28;20466;-76
2022/08/02 03:16:14;;;;;;;0.30;0.30;;;;;;;16.84;100.00;100332.81;4989044;28;20562;-76
2022/08/02 03:18:42;;;;;;;0.30;0.30;;;;;;;16.88;100.00;100344.03;5020249;28;20054;-76
2022/08/02 03:21:13;;;;;;;0.30;0.30;;;;;;;16.78;100.00;100322.88;5017708;28;20025;-76
2022/08/02 03:23:42;;;;;;;0.20;0.20;;;;;;;16.84;100.00;100327.38;5006186;28;20035;-77
2022/08/02 03:26:08;;;;;;;0.30;0.30;;;;;;;16.86;100.00;100343.47;4991445;28;20045;-77
2022/08/02 03:28:49;;;;;;;0.20;0.20;;;;;;;16.81;100.00;100337.88;5003367;28;20034;-76
2022/08/02 03:31:15;;;;;;;0.30;0.30;;;;;;;16.83;100.00;100349.31;5002442;28;20076;-76
2022/08/02 03:33:41;;;;;;;0.30;0.30;;;;;;;16.83;100.00;100365.59;5005910;28;20053;-76
2022/08/02 03:36:12;;;;;;;0.40;0.40;;;;;;;16.82;100.00;100361.25;4998281;28;20056;-77
2022/08/02 03:38:37;;;;;;;0.30;0.30;;;;;;;16.75;100.00;100361.31;5004489;28;20041;-76
2022/08/02 03:41:04;;;;;;;0.20;0.20;;;;;;;16.83;100.00;100360.19;5020393;28;20103;-77
2022/08/02 03:43:30;;;;;;;0.20;0.20;;;;;;;16.80;100.00;100347.06;4985278;28;20053;-76
2022/08/02 03:45:57;;;;;;;0.20;0.20;;;;;;;16.78;100.00;100336.44;4990059;28;20072;-76
2022/08/02 03:48:22;;;;;;;0.30;0.30;;;;;;;16.77;100.00;100320.34;5021545;28;20452;-76
2022/08/02 03:50:49;;;;;;;0.25;0.25;;;;;;;16.72;100.00;100302.00;5015130;28;20120;-76
2022/08/02 03:53:18;;;;;;;0.30;0.30;;;;;;;16.72;100.00;100293.88;5013599;28;21055;-76
2022/08/02 03:55:44;;;;;;;0.20;0.20;;;;;;;16.68;100.00;100296.22;5015610;28;20033;-76
2022/08/02 03:58:20;;;;;;;0.28;0.28;;;;;;;16.67;100.00;100310.84;4988523;28;20446;-76
2022/08/02 04:00:46;;;;;;;0.30;0.30;;;;;;;16.66;100.00;100287.47;5000804;28;20128;-77
2022/08/02 04:03:13;;;;;;;0.20;0.20;;;;;;;16.64;100.00;100289.56;5009347;28;20539;-77
2022/08/02 04:05:39;;;;;;;0.30;0.30;;;;;;;16.64;100.00;100324.03;5015734;28;20025;-78
2022/08/02 04:08:09;;;;;;;0.30;0.30;;;;;;;16.63;100.00;100325.09;5013507;28;20490;-76
2022/08/02 04:11:29;;;;;;;0.30;0.30;;;;;;;16.62;100.00;100312.59;5004880;28;21924;-78
2022/08/02 04:13:22;;;;;;;0.20;0.20;;;;;;;16.56;100.00;100279.03;5028002;28;20117;-76
2022/08/02 04:15:49;;;;;;;0.30;0.30;;;;;;;16.52;100.00;100272.41;5004951;28;20510;-76
2022/08/02 04:18:16;;;;;;;0.30;0.30;;;;;;;16.47;100.00;100281.22;5013648;28;20038;-76
2022/08/02 04:20:42;;;;;;;0.30;0.30;;;;;;;16.48;100.00;100298.31;5003363;28;20044;-77
2022/08/02 04:23:10;;;;;;;0.30;0.30;;;;;;;16.45;100.00;100290.63;4981555;28;20038;-78
2022/08/02 04:25:38;;;;;;;0.20;0.20;;;;;;;16.45;100.00;100277.91;5010432;28;20087;-77
2022/08/02 04:28:04;;;;;;;0.45;0.45;;;;;;;16.41;100.00;100292.97;4988473;28;20037;-77
2022/08/02 04:30:30;;;;;;;0.30;0.30;;;;;;;16.38;100.00;100288.00;5007757;28;20731;-77
2022/08/02 04:32:57;;;;;;;0.30;0.30;;;;;;;16.33;100.00;100276.19;5007449;28;20053;-76
2022/08/02 04:35:23;;;;;;;0.30;0.30;;;;;;;16.33;100.00;100277.00;5019930;28;20941;-77
2022/08/02 04:37:48;;;;;;;0.30;0.30;;;;;;;16.33;100.00;100287.03;4983125;28;20056;-76
2022/08/02 04:40:15;;;;;;;0.20;0.20;;;;;;;16.35;100.00;100284.91;5016112;28;20026;-77
2022/08/02 04:42:40;;;;;;;0.30;0.30;;;;;;;16.32;100.00;100285.34;5012449;28;20037;-77
2022/08/02 04:45:07;;;;;;;0.20;0.20;;;;;;;16.33;100.00;100287.84;5017364;28;20393;-77
2022/08/02 04:47:33;;;;;;;0.30;0.30;;;;;;;16.32;100.00;100279.94;4993323;28;20033;-76
2022/08/02 04:49:59;;;;;;;0.20;0.20;;;;;;;16.31;100.00;100272.84;5001196;28;20365;-76
2022/08/02 04:52:25;;;;;;;0.28;0.28;;;;;;;16.29;100.00;100280.38;4991404;28;20190;-77
2022/08/02 04:54:52;;;;;;;0.20;0.20;;;;;;;16.27;100.00;100277.88;5006054;28;20040;-76
2022/08/02 05:00:04;;;;;;;0.30;0.30;;;;;;;16.30;100.00;100282.88;5006618;28;20087;-77
2022/08/02 05:02:30;;;;;;;0.20;0.20;;;;;;;16.34;100.00;100283.25;5010304;28;20033;-76
2022/08/02 05:04:55;;;;;;;0.20;0.20;;;;;;;16.35;100.00;100283.00;5018765;28;20025;-76
2022/08/02 05:07:21;;;;;;;0.22;0.22;;;;;;;16.40;100.00;100285.88;5006756;28;20475;-77
2022/08/02 05:09:47;;;;;;;0.20;0.20;;;;;;;16.38;100.00;100288.00;5011786;28;20127;-76
2022/08/02 05:12:12;;;;;;;0.20;0.20;;;;;;;16.46;100.00;100292.31;4997294;28;20033;-77
2022/08/02 05:14:38;;;;;;;0.30;0.30;;;;;;;16.41;100.00;100298.41;4998956;28;20029;-77
2022/08/02 05:17:04;;;;;;;0.20;0.20;;;;;;;16.49;100.00;100314.38;5041023;28;20534;-77
2022/08/02 05:19:29;;;;;;;0.20;0.20;;;;;;;16.48;100.00;100311.88;5011901;28;20410;-77
2022/08/02 05:21:55;;;;;;;0.30;0.30;;;;;;;16.51;100.00;100316.03;5001010;28;20106;-76
2022/08/02 05:24:21;;;;;;;0.30;0.30;;;;;;;16.49;100.00;100327.13;5016619;28;20041;-78
2022/08/02 05:26:46;;;;;;;0.30;0.30;;;;;;;16.35;100.00;100314.75;5011068;28;20033;-78
2022/08/02 05:29:12;;;;;;;0.50;0.50;;;;;;;16.32;100.00;100288.88;5003189;28;20430;-78
2022/08/02 05:31:38;;;;;;;0.30;0.30;;;;;;;16.29;100.00;100321.06;5011169;28;20043;-79
2022/08/02 05:34:04;;;;;;;0.30;0.30;;;;;;;16.24;100.00;100322.56;5030137;28;20244;-76
2022/08/02 05:36:29;;;;;;;0.30;0.30;;;;;;;16.26;100.00;100336.75;5005560;28;20056;-77
2022/08/02 05:38:55;;;;;;;0.30;0.30;;;;;;;16.27;100.00;100327.56;5010613;28;20041;-77
2022/08/02 05:41:21;;;;;;;0.52;0.50;;;;;;;16.30;100.00;100326.28;4988986;28;20033;-77
2022/08/02 05:43:46;;;;;;;2.17;0.50;;;;;;;16.36;100.00;100330.00;5000666;28;20502;-77
2022/08/02 05:46:12;;;;;;;0.70;0.57;;;;;;;16.36;100.00;100330.81;5001494;28;20033;-76
2022/08/02 05:48:38;;;;;;;0.40;0.40;;;;;;;16.35;100.00;100328.31;5008846;28;20046;-77
2022/08/02 05:51:21;;;;;;;0.25;0.25;;;;;;;16.32;100.00;100320.63;4989680;28;20042;-77
2022/08/02 05:53:55;;;;;;;0.40;0.40;;;;;;;16.25;100.00;100301.72;4990803;28;20053;-77
2022/08/02 05:56:36;;;;;;;0.45;0.45;;;;;;;16.29;100.00;100321.06;5027231;28;20497;-76
2022/08/02 05:59:17;;;;;;;1.10;0.57;;;;;;;16.26;100.00;100320.47;5000699;28;20049;-77
2022/08/02 06:01:46;;;;;;;0.93;0.63;;;;;;;16.21;100.00;100331.16;5031240;28;20095;-77
2022/08/02 06:04:22;;;;;;;0.73;0.60;;;;;;;16.12;100.00;100313.53;5016725;28;20054;-77
2022/08/02 06:06:52;;;;;;;0.32;0.32;;;;;;;16.22;100.00;100324.69;4993250;28;20038;-76
2022/08/02 06:09:18;;;;;;;0.57;0.55;;;;;;;16.22;100.00;100327.41;5006664;28;20064;-76
2022/08/02 06:11:46;;;;;;;0.30;0.30;;;;;;;16.25;100.00;100335.09;4999211;28;20116;-76
2022/08/02 06:14:12;;;;;;;0.30;0.30;;;;;;;16.18;100.00;100328.91;5000150;28;20072;-76
2022/08/02 06:16:38;;;;;;;0.20;0.20;;;;;;;16.27;100.00;100332.13;5025974;28;20030;-76
2022/08/02 06:19:04;;;;;;;0.40;0.40;;;;;;;16.30;100.00;100333.56;4994440;28;20559;-77
2022/08/02 06:21:32;;;;;;;0.30;0.30;;;;;;;16.27;100.00;100324.00;4988083;28;20067;-77
2022/08/02 06:23:58;;;;;;;0.20;0.20;;;;;;;16.20;100.00;100315.94;5018887;28;20113;-78
2022/08/02 06:26:25;;;;;;;0.22;0.22;;;;;;;16.26;100.00;100331.31;4993549;28;20493;-77
2022/08/02 06:28:53;;;;;;;0.50;0.50;;;;;;;16.27;100.00;100333.00;4985640;28;20035;-76
2022/08/02 06:31:19;;;;;;;0.63;0.40;;;;;;;16.26;100.00;100330.50;5027009;28;20037;-76
2022/08/02 06:33:45;;;;;;;0.60;0.60;;;;;;;16.23;100.00;100320.09;5016767;28;20080;-77
2022/08/02 06:36:31;;;;;;;0.30;0.30;;;;;;;16.24;100.00;100333.41;5009326;28;20277;-76
2022/08/02 06:39:35;;;;;;;0.43;0.40;;;;;;;16.28;100.00;100328.41;5017673;28;20042;-76
2022/08/02 06:42:11;;;;;;;0.30;0.30;;;;;;;16.31;100.00;100330.66;5026804;28;20045;-78
2022/08/02 06:44:37;;;;;;;0.32;0.32;;;;;;;16.31;100.00;100325.22;5017290;28;20030;-76
2022/08/02 06:47:03;;;;;;;0.30;0.30;;;;;;;16.33;100.00;100325.03;5044250;28;20406;-78
2022/08/02 06:49:29;;;;;;;0.30;0.30;;;;;;;16.31;100.00;100329.84;5000369;28;20034;-77
2022/08/02 06:51:54;;;;;;;0.30;0.30;;;;;;;16.18;100.00;100300.94;5004208;28;20033;-77
2022/08/02 06:54:20;;;;;;;0.30;0.30;;;;;;;16.31;100.00;100332.53;5008742;28;20582;-77
2022/08/02 06:56:47;;;;;;;0.30;0.30;;;;;;;16.29;100.00;100327.31;5004779;28;20104;-77
2022/08/02 06:59:12;;;;;;;0.30;0.30;;;;;;;16.34;100.00;100332.09;4988861;28;20418;-77
2022/08/02 07:01:41;;;;;;;0.30;0.30;;;;;;;16.26;100.00;100314.22;5019783;28;20508;-78
2022/08/02 07:04:08;;;;;;;0.35;0.35;;;;;;;16.37;100.00;100323.50;5006745;28;20459;-77
2022/08/02 07:06:34;;;;;;;0.40;0.40;;;;;;;16.36;100.00;100330.00;4988075;28;20779;-78
2022/08/02 07:09:00;;;;;;;0.30;0.30;;;;;;;16.42;100.00;100331.78;4981523;28;20040;-78
2022/08/02 07:11:26;;;;;;;0.30;0.30;;;;;;;16.57;100.00;100332.25;5018172;28;20041;-77
2022/08/02 07:13:51;;;;;;;0.30;0.30;;;;;;;16.78;100.00;100332.91;5005636;28;20140;-77
2022/08/02 07:16:17;;;;;;;0.30;0.30;;;;;;;16.77;100.00;100326.63;5014201;28;20037;-77
2022/08/02 07:18:43;;;;;;;0.30;0.30;;;;;;;16.90;100.00;100323.75;5012502;28;20037;-76
2022/08/02 07:21:08;;;;;;;0.30;0.30;;;;;;;17.19;100.00;100325.91;4987147;28;20483;-76
2022/08/02 07:23:34;;;;;;;0.40;0.40;;;;;;;17.59;100.00;100316.09;5012633;28;20035;-77
2022/08/02 07:26:03;;;;;;;0.30;0.30;;;;;;;17.45;100.00;100308.38;5034839;28;20033;-76
2022/08/02 07:29:08;;;;;;;0.30;0.30;;;;;;;17.57;100.00;100323.66;5000851;28;20055;-78
2022/08/02 07:32:13;;;;;;;0.30;0.30;;;;;;;17.33;100.00;100316.50;4997710;28;20056;-78
2022/08/02 07:34:55;;;;;;;0.30;0.30;;;;;;;17.30;100.00;100327.81;4989348;28;20562;-75
2022/08/02 07:37:44;;;;;;;0.30;0.30;;;;;;;17.24;100.00;100307.84;5005147;28;20037;-76
2022/08/02 07:40:11;;;;;;;0.30;0.30;;;;;;;17.41;100.00;100294.44;5011753;28;20033;-75
2022/08/02 07:42:46;;;;;;;0.30;0.30;;;;;;;17.85;100.00;100319.50;4981608;28;20100;-75
2022/08/02 07:45:13;;;;;;;0.30;0.30;;;;;;;17.90;100.00;100324.22;4986136;28;20049;-75
2022/08/02 07:47:39;;;;;;;0.35;0.35;;;;;;;17.61;100.00;100313.16;5016986;28;20029;-75
2022/08/02 07:50:06;;;;;;;0.30;0.30;;;;;;;17.46;100.00;100329.06;5006405;28;20499;-77
2022/08/02 07:52:32;;;;;;;0.30;0.30;;;;;;;17.37;100.00;100334.00;5006501;28;20118;-75
2022/08/02 07:54:57;;;;;;;0.20;0.20;;;;;;;17.29;100.00;100337.03;4981379;28;20111;-76
2022/08/02 07:57:24;;;;;;;0.30;0.30;;;;;;;17.25;100.00;100349.41;5049148;28;22221;-75
2022/08/02 07:59:50;;;;;;;0.70;0.30;;;;;;;17.10;100.00;100334.38;5009181;28;20030;-74
2022/08/02 08:02:16;;;;;;;0.30;0.30;;;;;;;17.11;100.00;100338.72;4985174;28;20038;-75
2022/08/02 08:04:47;;;;;;;0.30;0.30;;;;;;;17.07;100.00;100345.69;5016575;28;20029;-75
2022/08/02 08:07:16;;;;;;;0.30;0.30;;;;;;;17.05;100.00;100336.94;4984995;28;20052;-75
2022/08/02 08:09:43;;;;;;;0.30;0.30;;;;;;;17.09;100.00;100348.16;5008557;28;20065;-75
2022/08/02 08:12:15;;;;;;;0.30;0.30;;;;;;;17.04;100.00;100337.16;5006777;28;20033;-76
2022/08/02 08:14:40;;;;;;;0.30;0.30;;;;;;;17.05;100.00;100355.94;4998218;28;20098;-75
2022/08/02 08:17:07;;;;;;;0.30;0.30;;;;;;;16.98;100.00;100343.50;4988580;28;20439;-76
2022/08/02 08:19:33;;;;;;;0.30;0.30;;;;;;;17.06;100.00;100354.88;5005156;28;20053;-75
2022/08/02 08:21:59;;;;;;;0.30;0.30;;;;;;;17.03;100.00;100360.78;5012345;28;20534;-75
2022/08/02 08:24:28;;;;;;;0.30;0.30;;;;;;;17.04;100.00;100358.88;5009465;28;20587;-77
2022/08/02 08:26:55;;;;;;;0.30;0.30;;;;;;;17.08;100.00;100360.91;5012571;28;20033;-76
2022/08/02 08:29:21;;;;;;;0.30;0.30;;;;;;;17.06;100.00;100357.59;5044501;28;20030;-74
2022/08/02 08:31:48;;;;;;;0.30;0.30;;;;;;;16.98;100.00;100365.25;5014349;28;20084;-76
2022/08/02 08:34:17;;;;;;;0.40;0.40;;;;;;;16.97;100.00;100355.44;5048103;28;20034;-75
2022/08/02 08:36:43;;;;;;;0.30;0.30;;;;;;;16.88;100.00;100355.75;4990125;28;20483;-75
2022/08/02 08:39:09;;;;;;;0.30;0.30;;;;;;;16.87;100.00;100358.69;5052032;28;20502;-75
2022/08/02 08:41:36;;;;;;;0.30;0.30;;;;;;;16.99;100.00;100362.31;5029061;28;20038;-76
2022/08/02 08:44:02;;;;;;;0.40;0.40;;;;;;;17.03;100.00;100370.81;5035571;28;20042;-74
2022/08/02 08:46:33;;;;;;;0.40;0.40;;;;;;;16.95;100.00;100350.22;5011156;28;20072;-75
2022/08/02 08:49:02;;;;;;;0.30;0.30;;;;;;;17.19;100.00;100361.22;5002298;28;20038;-75
2022/08/02 08:51:37;;;;;;;0.30;0.30;;;;;;;17.20;100.00;100366.44;5005074;28;20033;-75
2022/08/02 08:54:03;;;;;;;0.40;0.40;;;;;;;17.05;100.00;100350.53;5002509;28;20054;-75
2022/08/02 08:56:34;;;;;;;0.43;0.40;;;;;;;17.18;100.00;100362.28;5004990;28;20080;-75
2022/08/02 08:59:01;;;;;;;0.30;0.30;;;;;;;17.14;100.00;100351.84;5009953;28;20072;-75
2022/08/02 09:01:26;;;;;;;0.30;0.30;;;;;;;17.29;100.00;100364.22;5024407;28;20112;-75
2022/08/02 09:03:52;;;;;;;0.30;0.30;;;;;;;17.30;100.00;100363.97;5011521;28;20625;-75
2022/08/02 09:06:19;;;;;;;0.30;0.30;;;;;;;17.42;100.00;100357.78;5003166;28;20022;-76
2022/08/02 09:08:45;;;;;;;0.30;0.30;;;;;;;17.39;100.00;100344.66;5007901;28;20497;-75
2022/08/02 09:11:19;;;;;;;0.30;0.30;;;;;;;17.53;100.00;100357.81;5000986;28;20029;-75
2022/08/02 09:13:52;;;;;;;0.30;0.30;;;;;;;17.63;100.00;100364.59;5007801;28;20148;-75
2022/08/02 09:16:27;;;;;;;;;;;;;;;17.72;100.00;100355.03;5025474;28;20048;-74
2022/08/02 09:18:52;;;;;;;0.30;0.30;;;;;;;17.88;100.00;100362.53;5023187;28;19932;-75
2022/08/02 09:21:18;;;;;;;0.30;0.30;;;;;;;17.93;100.00;100359.94;5014186;28;20034;-75
2022/08/02 09:23:49;;;;;;;0.30;0.30;;;;;;;18.13;100.00;100362.34;5026439;28;20029;-75
2022/08/02 09:26:17;;;;;;;0.30;0.30;;;;;;;18.15;100.00;100359.38;4985295;28;20399;-76
2022/08/02 09:28:45;;;;;;;0.30;0.30;;;;;;;18.15;100.00;100353.94;5009102;28;20049;-76
2022/08/02 09:31:13;;;;;;;0.30;0.30;;;;;;;18.20;100.00;100356.78;5010536;28;20026;-75
2022/08/02 09:33:43;;;;;;;1.65;0.38;;;;;;;18.20;100.00;100352.16;5018647;28;20491;-75
2022/08/02 09:36:11;;;;;;;0.30;0.30;;;;;;;18.35;100.00;100357.13;5011257;28;20037;-76
2022/08/02 09:38:39;;;;;;;0.30;0.30;;;;;;;18.35;100.00;100359.84;4992532;28;20075;-75
2022/08/02 09:41:06;;;;;;;0.30;0.30;;;;;;;18.38;100.00;100361.28;5005855;28;20129;-76
2022/08/02 09:43:40;;;;;;;0.30;0.30;;;;;;;18.44;100.00;100363.91;5039503;28;20029;-75
2022/08/02 09:46:26;;;;;;;0.30;0.30;;;;;;;18.57;100.00;100359.25;4992006;28;20057;-77
2022/08/02 09:49:00;;;;;;;0.30;0.30;;;;;;;18.70;100.00;100356.28;5024280;28;20042;-75
2022/08/02 09:51:31;;;;;;;0.40;0.40;;;;;;;18.89;100.00;100355.09;5013453;28;20529;-75
2022/08/02 09:53:58;;;;;;;0.40;0.40;;;;;;;19.08;100.00;100365.84;5013346;28;20196;-75
2022/08/02 09:56:28;;;;;;;0.30;0.30;;;;;;;19.08;100.00;100366.66;5008101;28;20419;-76
2022/08/02 09:58:55;;;;;;;0.40;0.40;;;;;;;19.03;100.00;100360.28;4994296;28;20022;-75
2022/08/02 10:01:31;;;;;;;0.40;0.40;;;;;;;18.81;100.00;100355.44;5023925;28;20116;-76
2022/08/02 10:03:59;;;;;;;0.40;0.40;;;;;;;18.56;100.00;100349.44;5028703;28;20025;-76
2022/08/02 10:06:25;;;;;;;0.30;0.30;;;;;;;18.67;100.00;100362.19;5023936;28;20099;-75
2022/08/02 10:08:52;;;;;;;0.40;0.40;;;;;;;18.86;100.00;100360.19;5006141;28;20045;-76
2022/08/02 10:11:22;;;;;;;0.40;0.40;;;;;;;19.03;100.00;100354.81;5026774;28;20431;-76
2022/08/02 10:13:48;;;;;;;0.40;0.40;;;;;;;19.02;100.00;100369.50;4994111;28;20026;-76
2022/08/02 10:16:22;;;;;;;0.40;0.40;;;;;;;18.81;100.00;100352.72;5016366;28;20522;-75
2022/08/02 10:18:48;;;;;;;;;;;;;;;18.82;100.00;100357.13;5003969;28;20069;-75
2022/08/02 10:21:19;;;;;;;0.40;0.40;;;;;;;18.89;100.00;100354.25;5042019;28;19921;-76
2022/08/02 10:23:47;;;;;;;0.30;0.30;;;;;;;19.02;100.00;100364.88;4993493;28;20033;-75
2022/08/02 10:26:18;;;;;;;0.40;0.40;;;;;;;19.13;100.00;100368.63;5008487;28;20096;-75
2022/08/02 10:28:48;;;;;;;0.30;0.30;;;;;;;19.17;100.00;100371.72;5005021;28;20597;-75
2022/08/02 10:31:23;;;;;;;0.30;0.30;;;;;;;18.83;100.00;100369.66;5030054;28;20025;-77
2022/08/02 10:33:51;;;;;;;0.30;0.30;;;;;;;18.80;100.00;100372.03;5007764;28;20450;-76
2022/08/02 10:36:18;;;;;;;0.40;0.40;;;;;;;18.91;100.00;100379.38;5025949;28;20052;-75
2022/08/02 10:38:44;;;;;;;0.38;0.38;;;;;;;19.00;100.00;100371.63;5013801;28;20042;-75
2022/08/02 10:41:10;;;;;;;0.30;0.30;;;;;;;18.99;100.00;100380.88;5005575;28;20042;-75
2022/08/02 10:43:36;;;;;;;0.30;0.30;;;;;;;19.13;100.00;100387.72;4991864;28;20029;-76
2022/08/02 10:46:20;;;;;;;0.40;0.40;;;;;;;19.05;100.00;100399.84;5006329;28;20033;-75
2022/08/02 10:49:12;;;;;;;0.40;0.40;;;;;;;19.51;100.00;100378.09;5019656;28;20911;-76
2022/08/02 10:52:06;;;;;;;0.50;0.50;;;;;;;22.58;100.00;100382.84;5027195;28;20044;-75
2022/08/02 10:54:56;;;;;;;0.50;0.50;;;;;;;23.31;97.43;100378.53;4988707;28;20474;-76
2022/08/02 10:57:23;;;;;;;0.50;0.50;;;;;;;24.35;91.29;100368.22;5005178;28;20033;-76
2022/08/02 10:59:51;;;;;;;0.40;0.40;;;;;;;24.61;91.06;100373.69;5021156;28;20034;-76
2022/08/02 11:02:40;;;;;;;0.60;0.47;;;;;;;23.76;96.00;100369.59;4992298;28;20049;-77
2022/08/02 11:05:08;;;;;;;0.40;0.40;;;;;;;23.39;97.53;100364.28;5007577;28;20025;-77
2022/08/02 11:07:39;;;;;;;0.40;0.40;;;;;;;23.03;99.79;100361.44;5009317;28;20038;-76
2022/08/02 11:10:29;;;;;;;0.38;0.38;;;;;;;22.55;100.00;100361.47;5009220;28;20128;-76
2022/08/02 11:13:13;;;;;;;0.30;0.30;;;;;;;21.61;100.00;100357.41;5005498;28;20030;-76
2022/08/02 11:15:59;;;;;;;2.45;0.60;;;;;;;20.74;100.00;100350.09;5010241;28;20356;-77
2022/08/02 11:18:50;;;;;;;0.40;0.40;;;;;;;21.15;100.00;100358.81;5006412;28;20056;-77
2022/08/02 11:21:22;;;;;;;0.40;0.40;;;;;;;21.51;100.00;100349.09;5022553;28;20044;-76
2022/08/02 11:23:51;;;;;;;1.00;1.00;;;;;;;22.58;100.00;100347.22;5001028;28;20032;-77
2022/08/02 11:26:29;;;;;;;0.52;0.52;;;;;;;22.46;98.78;100357.56;5042433;28;20064;-77
2022/08/02 11:29:01;;;;;;;0.90;0.90;;;;;;;24.91;89.72;100348.03;5020268;28;20395;-77
2022/08/02 11:31:28;;;;;;;0.40;0.40;;;;;;;26.29;81.99;100331.41;5016456;28;20029;-77
2022/08/02 11:33:54;;;;;;;0.80;0.80;;;;;;;26.48;81.95;100344.44;5024783;28;20092;-78